createdAt,value
2017-12-20T00:02:08.613Z,18.77
2017-12-20T00:04:36.216Z,19.30
2017-12-20T00:07:03.844Z,19.70
2017-12-20T00:09:32.279Z,16.90
2017-12-20T00:11:59.874Z,18.55
2017-12-20T00:14:27.535Z,18.98
2017-12-20T00:16:55.145Z,18.52
2017-12-20T00:19:23.525Z,17.70
2017-12-20T00:21:51.892Z,18.87
2017-12-20T00:24:19.527Z,17.73
2017-12-20T00:26:47.117Z,19.70
2017-12-20T00:29:14.788Z,19.02
2017-12-20T00:31:42.431Z,16.95
2017-12-20T00:34:10.064Z,17.25
2017-12-20T00:36:37.724Z,18.77
2017-12-20T00:39:05.347Z,17.48
2017-12-20T00:41:32.968Z,17.00
2017-12-20T00:44:00.585Z,18.58
2017-12-20T00:46:28.222Z,16.80
2017-12-20T00:48:55.837Z,17.40
2017-12-20T00:51:24.219Z,14.82
2017-12-20T00:53:52.618Z,16.90
2017-12-20T00:56:20.997Z,18.60
2017-12-20T00:58:49.408Z,15.65
2017-12-20T01:01:17.046Z,17.52
2017-12-20T01:03:45.403Z,15.90
2017-12-20T01:06:13.019Z,15.70
2017-12-20T01:08:40.632Z,16.48
2017-12-20T01:11:08.259Z,17.83
2017-12-20T01:13:35.847Z,15.05
2017-12-20T01:16:03.455Z,16.02
2017-12-20T01:18:31.813Z,16.17
2017-12-20T01:21:01.258Z,17.15
2017-12-20T01:23:28.870Z,16.35
2017-12-20T01:25:56.492Z,17.05
2017-12-20T01:28:24.074Z,14.82
2017-12-20T01:30:52.023Z,15.43
2017-12-20T01:33:20.692Z,14.43
2017-12-20T01:35:48.295Z,15.73
2017-12-20T01:38:15.882Z,14.75
2017-12-20T01:40:43.520Z,15.43
2017-12-20T01:43:11.163Z,15.20
2017-12-20T01:45:38.821Z,15.00
2017-12-20T01:48:06.440Z,15.38
2017-12-20T01:50:34.088Z,15.00
2017-12-20T01:53:01.741Z,16.15
2017-12-20T01:55:30.118Z,14.23
2017-12-20T01:57:58.516Z,13.93
2017-12-20T02:00:26.911Z,13.80
2017-12-20T02:02:54.552Z,13.65
2017-12-20T02:05:22.191Z,13.73
2017-12-20T02:07:49.780Z,14.15
2017-12-20T02:10:18.164Z,14.07
2017-12-20T02:12:46.561Z,14.60
2017-12-20T02:15:14.981Z,14.23
2017-12-20T02:17:42.592Z,15.00
2017-12-20T02:20:10.212Z,15.70
2017-12-20T02:22:38.590Z,14.10
2017-12-20T02:25:06.223Z,14.18
2017-12-20T02:27:34.604Z,13.13
2017-12-20T02:30:03.003Z,15.10
2017-12-20T02:32:30.649Z,14.55
2017-12-20T02:34:59.024Z,12.95
2017-12-20T02:37:27.669Z,14.23
2017-12-20T02:39:55.271Z,12.98
2017-12-20T02:42:22.929Z,12.73
2017-12-20T02:44:50.575Z,13.05
2017-12-20T02:47:18.228Z,14.75
2017-12-20T02:49:45.932Z,14.15
2017-12-20T02:52:13.553Z,14.40
2017-12-20T02:54:41.199Z,14.40
2017-12-20T02:57:08.838Z,13.73
2017-12-20T02:59:36.454Z,13.07
2017-12-20T03:02:04.055Z,13.95
2017-12-20T03:04:31.707Z,12.65
2017-12-20T03:06:59.336Z,11.70
2017-12-20T03:09:26.982Z,12.00
2017-12-20T03:11:57.770Z,11.95
2017-12-20T03:14:25.397Z,12.10
2017-12-20T03:16:53.758Z,11.77
2017-12-20T03:19:21.400Z,12.27
2017-12-20T03:21:49.055Z,13.45
2017-12-20T03:24:16.678Z,10.88
2017-12-20T03:26:44.314Z,10.85
2017-12-20T03:29:11.957Z,12.68
2017-12-20T03:31:39.595Z,11.30
2017-12-20T03:34:07.229Z,11.88
2017-12-20T03:36:35.638Z,9.90
2017-12-20T03:39:03.254Z,9.48
2017-12-20T03:41:30.860Z,10.10
2017-12-20T03:43:59.242Z,10.07
2017-12-20T03:46:27.615Z,10.45
2017-12-20T03:48:56.022Z,11.57
2017-12-20T03:51:23.635Z,9.50
2017-12-20T03:53:51.281Z,10.02
2017-12-20T03:56:18.905Z,10.63
2017-12-20T03:58:47.308Z,9.98
2017-12-20T04:01:14.927Z,10.90
2017-12-20T04:03:42.547Z,9.80
2017-12-20T04:06:10.143Z,9.13
2017-12-20T04:08:37.783Z,11.50
2017-12-20T04:11:05.379Z,10.80
2017-12-20T04:13:32.997Z,10.95
2017-12-20T04:16:00.650Z,9.63
2017-12-20T04:18:29.040Z,11.90
2017-12-20T04:20:57.437Z,9.77
2017-12-20T04:23:25.040Z,9.30
2017-12-20T04:25:58.815Z,10.65
2017-12-20T04:28:26.456Z,10.45
2017-12-20T04:30:54.835Z,10.48
2017-12-20T04:33:23.251Z,10.18
2017-12-20T04:35:50.862Z,10.02
2017-12-20T04:38:18.468Z,11.10
2017-12-20T04:40:46.082Z,10.45
2017-12-20T04:43:13.712Z,11.30
2017-12-20T04:45:41.334Z,9.90
2017-12-20T04:48:08.962Z,11.25
2017-12-20T04:50:37.347Z,10.98
2017-12-20T04:53:04.949Z,11.10
2017-12-20T04:55:32.560Z,10.00
2017-12-20T04:58:00.296Z,11.52
2017-12-20T05:00:28.764Z,10.40
2017-12-20T05:02:56.398Z,11.50
2017-12-20T05:05:24.018Z,10.82
2017-12-20T05:07:52.407Z,10.80
2017-12-20T05:10:20.776Z,10.82
2017-12-20T05:12:49.168Z,11.90
2017-12-20T05:15:17.524Z,10.55
2017-12-20T05:17:45.167Z,11.05
2017-12-20T05:20:12.774Z,10.57
2017-12-20T05:22:41.154Z,11.00
2017-12-20T05:25:08.788Z,10.23
2017-12-20T05:27:36.425Z,11.20
2017-12-20T05:30:04.419Z,10.88
2017-12-20T05:32:32.035Z,10.73
2017-12-20T05:35:00.443Z,10.77
2017-12-20T05:37:28.475Z,10.25
2017-12-20T05:39:56.086Z,8.85
2017-12-20T05:42:24.063Z,9.95
2017-12-20T05:44:51.700Z,12.20
2017-12-20T05:47:21.165Z,10.07
2017-12-20T05:49:48.807Z,10.65
2017-12-20T05:52:16.426Z,10.80
2017-12-20T05:54:44.070Z,11.80
2017-12-20T05:57:11.668Z,11.15
2017-12-20T05:59:39.322Z,11.02
2017-12-20T06:02:06.985Z,9.13
2017-12-20T06:04:34.625Z,9.15
2017-12-20T06:07:02.260Z,10.90
2017-12-20T06:09:29.870Z,9.55
2017-12-20T06:11:57.505Z,11.32
2017-12-20T06:14:25.077Z,10.88
2017-12-20T06:16:52.688Z,11.02
2017-12-20T06:19:20.289Z,10.50
2017-12-20T06:21:47.893Z,9.30
2017-12-20T06:24:15.505Z,10.57
2017-12-20T06:26:43.884Z,10.48
2017-12-20T06:29:12.263Z,10.50
2017-12-20T06:31:40.679Z,9.88
2017-12-20T06:34:08.354Z,10.02
2017-12-20T06:36:36.729Z,9.85
2017-12-20T06:39:04.378Z,11.20
2017-12-20T06:41:31.993Z,11.45
2017-12-20T06:43:59.612Z,11.25
2017-12-20T06:46:27.962Z,11.18
2017-12-20T06:48:57.817Z,10.02
2017-12-20T06:51:25.437Z,10.73
2017-12-20T06:53:53.037Z,10.48
2017-12-20T06:56:21.443Z,11.02
2017-12-20T06:58:49.028Z,11.55
2017-12-20T07:01:16.643Z,9.75
2017-12-20T07:03:45.036Z,9.57
2017-12-20T07:06:13.404Z,10.05
2017-12-20T07:08:42.014Z,9.45
2017-12-20T07:11:09.632Z,10.60
2017-12-20T07:13:38.286Z,11.27
2017-12-20T07:16:05.893Z,11.68
2017-12-20T07:18:33.495Z,10.57
2017-12-20T07:21:01.116Z,10.52
2017-12-20T07:23:28.729Z,10.52
2017-12-20T07:25:56.373Z,10.40
2017-12-20T07:28:23.954Z,10.35
2017-12-20T07:30:52.316Z,9.25
2017-12-20T07:33:20.919Z,9.30
2017-12-20T07:35:49.310Z,9.60
2017-12-20T07:38:17.687Z,9.15
2017-12-20T07:40:46.056Z,8.68
2017-12-20T07:43:14.692Z,9.77
2017-12-20T07:45:42.318Z,8.15
2017-12-20T07:48:10.744Z,8.88
2017-12-20T07:50:38.371Z,9.55
2017-12-20T07:53:06.726Z,9.00
2017-12-20T07:55:34.383Z,7.93
2017-12-20T07:58:02.010Z,9.07
2017-12-20T08:00:29.612Z,8.70
2017-12-20T08:02:57.206Z,9.40
2017-12-20T08:05:24.817Z,8.90
2017-12-20T08:07:52.449Z,7.87
2017-12-20T08:10:20.846Z,8.95
2017-12-20T08:12:48.469Z,8.63
2017-12-20T08:15:16.108Z,8.25
2017-12-20T08:17:43.705Z,9.02
2017-12-20T08:20:11.321Z,9.27
2017-12-20T08:22:38.971Z,8.88
2017-12-20T08:25:06.592Z,9.35
2017-12-20T08:27:34.223Z,8.93
2017-12-20T08:30:01.836Z,9.45
2017-12-20T08:32:29.479Z,9.48
2017-12-20T08:34:57.074Z,9.88
2017-12-20T08:37:24.684Z,9.82
2017-12-20T08:39:52.304Z,10.25
2017-12-20T08:42:20.066Z,8.27
2017-12-20T08:44:48.737Z,8.25
2017-12-20T08:47:16.337Z,8.95
2017-12-20T08:49:43.946Z,10.10
2017-12-20T08:52:11.560Z,9.15
2017-12-20T08:54:39.179Z,8.90
2017-12-20T08:57:06.773Z,8.70
2017-12-20T08:59:34.397Z,9.07
2017-12-20T09:02:02.012Z,9.15
2017-12-20T09:04:29.612Z,8.57
2017-12-20T09:06:58.004Z,7.85
2017-12-20T09:09:25.598Z,8.85
2017-12-20T09:11:53.193Z,8.70
2017-12-20T09:14:20.808Z,8.45
2017-12-20T09:16:48.444Z,8.63
2017-12-20T09:19:16.061Z,8.55
2017-12-20T09:21:43.713Z,9.07
2017-12-20T09:24:11.311Z,8.57
2017-12-20T09:26:38.905Z,8.25
2017-12-20T09:29:06.522Z,8.25
2017-12-20T09:31:34.138Z,8.38
2017-12-20T09:34:01.738Z,7.93
2017-12-20T09:36:29.349Z,8.93
2017-12-20T09:38:57.024Z,8.77
2017-12-20T09:41:24.674Z,8.23
2017-12-20T09:43:52.376Z,8.77
2017-12-20T09:46:20.010Z,8.93
2017-12-20T09:48:47.651Z,8.65
2017-12-20T09:51:15.247Z,8.95
2017-12-20T09:53:43.896Z,8.00
2017-12-20T09:56:11.515Z,7.85
2017-12-20T09:58:39.153Z,9.45
2017-12-20T10:01:06.775Z,8.70
2017-12-20T10:03:35.170Z,8.95
2017-12-20T10:06:03.537Z,9.98
2017-12-20T10:08:31.921Z,9.68
2017-12-20T10:11:00.325Z,9.10
2017-12-20T10:13:28.741Z,9.05
2017-12-20T10:15:56.395Z,10.27
2017-12-20T10:18:24.025Z,10.10
2017-12-20T10:20:52.432Z,10.30
2017-12-20T10:23:20.030Z,9.35
2017-12-20T10:25:47.668Z,10.80
2017-12-20T10:28:15.313Z,9.80
2017-12-20T10:30:43.683Z,9.32
2017-12-20T10:33:12.079Z,8.75
2017-12-20T10:35:39.711Z,9.15
2017-12-20T10:38:07.313Z,8.63
2017-12-20T10:40:35.710Z,9.95
2017-12-20T10:43:03.335Z,8.32
2017-12-20T10:45:30.930Z,10.90
2017-12-20T10:47:59.521Z,9.30
2017-12-20T10:50:27.187Z,10.70
2017-12-20T10:52:55.550Z,8.25
2017-12-20T10:55:23.150Z,9.27
2017-12-20T10:57:51.123Z,9.70
2017-12-20T11:00:18.814Z,10.65
2017-12-20T11:02:46.410Z,9.40
2017-12-20T11:05:14.053Z,9.40
2017-12-20T11:07:41.658Z,9.27
2017-12-20T11:10:09.341Z,9.32
2017-12-20T11:12:37.798Z,8.30
2017-12-20T11:15:05.412Z,9.02
2017-12-20T11:17:33.039Z,9.52
2017-12-20T11:20:00.609Z,8.80
2017-12-20T11:22:29.047Z,9.18
2017-12-20T11:24:56.622Z,8.38
2017-12-20T11:27:24.230Z,9.90
2017-12-20T11:29:52.644Z,9.23
2017-12-20T11:32:21.003Z,8.55
2017-12-20T11:34:49.379Z,9.07
2017-12-20T11:37:17.758Z,8.95
2017-12-20T11:39:46.095Z,8.20
2017-12-20T11:42:13.706Z,8.88
2017-12-20T11:44:42.074Z,8.65
2017-12-20T11:47:09.666Z,8.00
2017-12-20T11:49:37.271Z,7.90
2017-12-20T11:52:04.883Z,9.20
2017-12-20T11:54:32.528Z,7.95
2017-12-20T11:57:00.107Z,9.30
2017-12-20T11:59:27.744Z,9.23
2017-12-20T12:01:55.370Z,8.35
2017-12-20T12:04:22.982Z,8.02
2017-12-20T12:06:50.651Z,9.40
2017-12-20T12:09:18.234Z,7.95
2017-12-20T12:11:45.866Z,7.78
2017-12-20T12:14:13.464Z,9.07
2017-12-20T12:16:41.162Z,8.32
2017-12-20T12:19:09.536Z,8.32
2017-12-20T12:21:37.179Z,8.65
2017-12-20T12:24:04.808Z,8.63
2017-12-20T12:26:32.435Z,8.48
2017-12-20T12:29:00.790Z,7.95
2017-12-20T12:31:28.390Z,8.90
2017-12-20T12:33:56.023Z,9.27
2017-12-20T12:36:23.669Z,8.18
2017-12-20T12:38:51.289Z,8.52
2017-12-20T12:41:19.650Z,9.20
2017-12-20T12:43:47.262Z,7.95
2017-12-20T12:46:15.663Z,7.85
2017-12-20T12:48:43.301Z,8.00
2017-12-20T12:51:10.924Z,8.20
2017-12-20T12:53:38.568Z,8.15
2017-12-20T12:56:06.205Z,7.30
2017-12-20T12:58:33.802Z,8.38
2017-12-20T13:01:02.444Z,8.52
2017-12-20T13:03:30.077Z,8.65
2017-12-20T13:05:57.717Z,8.82
2017-12-20T13:08:25.317Z,9.00
2017-12-20T13:10:52.947Z,8.30
2017-12-20T13:13:20.545Z,7.65
2017-12-20T13:15:48.180Z,9.02
2017-12-20T13:18:15.813Z,9.50
2017-12-20T13:20:43.400Z,9.75
2017-12-20T13:23:11.027Z,8.65
2017-12-20T13:25:39.431Z,9.45
2017-12-20T13:28:07.050Z,9.88
2017-12-20T13:30:34.718Z,10.50
2017-12-20T13:33:02.336Z,9.10
2017-12-20T13:35:29.926Z,9.35
2017-12-20T13:37:57.557Z,9.60
2017-12-20T13:40:25.160Z,10.48
2017-12-20T13:42:52.739Z,9.48
2017-12-20T13:45:20.352Z,10.32
2017-12-20T13:47:48.632Z,10.27
2017-12-20T13:50:16.266Z,10.50
2017-12-20T13:52:44.232Z,9.35
2017-12-20T13:55:11.864Z,11.70
2017-12-20T13:57:39.494Z,10.43
2017-12-20T14:00:07.882Z,10.63
2017-12-20T14:02:35.518Z,10.55
2017-12-20T14:05:03.147Z,10.05
2017-12-20T14:07:30.798Z,9.88
2017-12-20T14:09:58.425Z,11.00
2017-12-20T14:12:26.069Z,11.52
2017-12-20T14:14:53.695Z,10.93
2017-12-20T14:17:21.309Z,10.70
2017-12-20T14:19:49.951Z,10.45
2017-12-20T14:22:17.558Z,12.45
2017-12-20T14:24:45.178Z,10.27
2017-12-20T14:27:12.795Z,10.77
2017-12-20T14:29:40.386Z,9.80
2017-12-20T14:32:08.792Z,10.90
2017-12-20T14:34:36.414Z,10.73
2017-12-20T14:37:04.010Z,10.93
2017-12-20T14:39:32.647Z,11.70
2017-12-20T14:42:00.261Z,10.77
2017-12-20T14:44:27.885Z,11.05
2017-12-20T14:46:55.515Z,11.48
2017-12-20T14:49:23.112Z,10.57
2017-12-20T14:51:52.059Z,11.73
2017-12-20T14:54:20.452Z,11.20
2017-12-20T14:56:48.815Z,12.00
2017-12-20T14:59:16.443Z,11.85
2017-12-20T15:01:44.081Z,11.88
2017-12-20T15:04:12.719Z,12.30
2017-12-20T15:06:41.118Z,12.00
2017-12-20T15:09:09.008Z,12.63
2017-12-20T15:11:37.594Z,11.95
2017-12-20T15:14:05.364Z,11.82
2017-12-20T15:16:33.263Z,11.40
2017-12-20T15:19:01.033Z,13.23
2017-12-20T15:21:28.680Z,12.93
2017-12-20T15:23:56.697Z,12.07
2017-12-20T15:26:24.349Z,16.83
2017-12-20T15:28:52.091Z,12.43
2017-12-20T15:31:19.799Z,11.48
2017-12-20T15:33:47.451Z,12.00
2017-12-20T15:36:15.110Z,11.30
2017-12-20T15:38:42.737Z,13.38
2017-12-20T15:41:11.091Z,12.93
2017-12-20T15:43:38.739Z,13.62
2017-12-20T15:46:06.406Z,13.48
2017-12-20T15:48:34.844Z,13.43
2017-12-20T15:51:03.267Z,13.52
2017-12-20T15:53:30.895Z,13.35
2017-12-20T15:55:59.719Z,13.07
2017-12-20T15:58:27.372Z,13.50
2017-12-20T16:00:55.029Z,13.18
2017-12-20T16:03:23.385Z,12.32
2017-12-20T16:05:51.030Z,13.68
2017-12-20T16:08:18.618Z,13.62
2017-12-20T16:10:46.217Z,12.73
2017-12-20T16:13:14.647Z,14.18
2017-12-20T16:15:42.510Z,15.80
2017-12-20T16:18:10.341Z,15.02
2017-12-20T16:20:38.018Z,15.63
2017-12-20T16:23:05.671Z,15.23
2017-12-20T16:25:33.271Z,14.87
2017-12-20T16:28:00.895Z,14.02
2017-12-20T16:30:28.537Z,13.80
2017-12-20T16:32:56.643Z,12.55
2017-12-20T16:35:24.291Z,14.32
2017-12-20T16:37:51.911Z,15.02
2017-12-20T16:40:21.200Z,13.45
2017-12-20T16:42:49.750Z,12.63
2017-12-20T16:45:17.574Z,15.55
2017-12-20T16:47:45.170Z,13.15
2017-12-20T16:50:13.370Z,15.05
2017-12-20T16:52:41.033Z,16.55
2017-12-20T16:55:09.514Z,14.55
2017-12-20T16:57:37.219Z,14.30
2017-12-20T17:00:04.807Z,14.55
2017-12-20T17:02:32.533Z,15.05
2017-12-20T17:05:00.271Z,13.95
2017-12-20T17:07:27.929Z,15.38
2017-12-20T17:09:55.540Z,15.25
2017-12-20T17:12:23.147Z,14.90
2017-12-20T17:14:51.132Z,14.52
2017-12-20T17:17:20.285Z,15.27
2017-12-20T17:19:47.966Z,14.65
2017-12-20T17:22:15.583Z,15.63
2017-12-20T17:24:43.794Z,16.23
2017-12-20T17:27:11.541Z,15.10
2017-12-20T17:29:39.949Z,14.35
2017-12-20T17:32:07.585Z,15.27
2017-12-20T17:34:35.218Z,16.25
2017-12-20T17:37:03.305Z,17.98
2017-12-20T17:39:31.429Z,15.93
2017-12-20T17:41:59.063Z,16.92
2017-12-20T17:44:26.707Z,15.85
2017-12-20T17:46:54.475Z,16.42
2017-12-20T17:49:22.154Z,16.02
2017-12-20T17:51:51.175Z,16.17
2017-12-20T17:54:19.894Z,16.58
2017-12-20T17:56:48.100Z,15.23
2017-12-20T17:59:15.951Z,16.12
2017-12-20T18:01:44.447Z,16.02
2017-12-20T18:04:12.357Z,16.52
2017-12-20T18:06:40.727Z,15.85
2017-12-20T18:09:08.506Z,18.20
2017-12-20T18:11:36.158Z,17.48
2017-12-20T18:14:03.788Z,18.45
2017-12-20T18:16:32.167Z,16.30
2017-12-20T18:19:00.675Z,18.50
2017-12-20T18:21:28.324Z,19.25
2017-12-20T18:23:55.929Z,17.80
2017-12-20T18:26:23.527Z,18.27
2017-12-20T18:28:51.993Z,17.00
2017-12-20T18:31:19.596Z,17.90
2017-12-20T18:33:47.955Z,16.83
2017-12-20T18:36:16.206Z,17.35
2017-12-20T18:38:44.255Z,17.20
2017-12-20T18:41:12.283Z,17.80
2017-12-20T18:43:40.029Z,17.20
2017-12-20T18:46:07.807Z,18.65
2017-12-20T18:48:35.951Z,16.52
2017-12-20T18:51:03.593Z,17.55
2017-12-20T18:53:32.288Z,18.80
2017-12-20T18:56:01.016Z,18.20
2017-12-20T18:58:28.731Z,18.35
2017-12-20T19:00:56.412Z,19.02
2017-12-20T19:03:24.810Z,17.73
2017-12-20T19:05:52.449Z,18.52
2017-12-20T19:08:20.486Z,17.10
2017-12-20T19:10:48.101Z,16.30
2017-12-20T19:13:16.068Z,18.02
2017-12-20T19:15:44.487Z,16.37
2017-12-20T19:18:12.107Z,15.63
2017-12-20T19:20:39.778Z,17.45
2017-12-20T19:23:08.204Z,16.45
2017-12-20T19:25:35.961Z,16.80
2017-12-20T19:28:03.746Z,16.58
2017-12-20T19:30:31.449Z,16.10
2017-12-20T19:32:59.987Z,18.10
2017-12-20T19:35:27.918Z,16.60
2017-12-20T19:37:55.909Z,16.45
2017-12-20T19:40:24.503Z,15.57
2017-12-20T19:42:53.345Z,16.00
2017-12-20T19:45:21.029Z,15.63
2017-12-20T19:47:48.949Z,16.27
2017-12-20T19:50:16.666Z,16.00
2017-12-20T19:52:44.502Z,16.90
2017-12-20T19:55:12.259Z,17.90
2017-12-20T19:57:39.944Z,17.40
2017-12-20T20:00:07.598Z,16.23
2017-12-20T20:02:36.066Z,15.75
2017-12-20T20:05:03.720Z,17.45
2017-12-20T20:07:31.411Z,16.85
2017-12-20T20:10:00.904Z,15.05
2017-12-20T20:12:29.447Z,17.05
2017-12-20T20:14:57.590Z,14.95
2017-12-20T20:17:25.281Z,16.67
2017-12-20T20:19:52.935Z,16.75
2017-12-20T20:22:20.938Z,16.02
2017-12-20T20:24:49.114Z,14.87
2017-12-20T20:27:17.688Z,15.57
2017-12-20T20:29:45.370Z,12.63
2017-12-20T20:32:13.085Z,14.20
2017-12-20T20:34:40.743Z,13.93
2017-12-20T20:37:08.508Z,14.95
2017-12-20T20:39:36.150Z,14.35
2017-12-20T20:42:03.918Z,16.25
2017-12-20T20:44:31.902Z,16.02
2017-12-20T20:46:59.588Z,16.25
2017-12-20T20:49:27.234Z,16.65
2017-12-20T20:51:54.851Z,18.67
2017-12-20T20:54:22.508Z,19.40
2017-12-20T20:56:50.576Z,20.12
2017-12-20T20:59:18.221Z,17.20
2017-12-20T21:01:45.865Z,17.35
2017-12-20T21:04:13.524Z,18.70
2017-12-20T21:06:41.415Z,19.60
2017-12-20T21:09:10.326Z,20.12
2017-12-20T21:11:38.207Z,20.55
2017-12-20T21:14:05.850Z,17.70
2017-12-20T21:16:33.965Z,18.77
2017-12-20T21:19:02.805Z,18.85
2017-12-20T21:21:30.479Z,21.10
2017-12-20T21:23:58.201Z,20.17
2017-12-20T21:26:26.029Z,19.92
2017-12-20T21:28:53.753Z,19.83
2017-12-20T21:31:21.395Z,17.37
2017-12-20T21:33:49.516Z,19.52
2017-12-20T21:36:17.170Z,16.75
2017-12-20T21:38:45.213Z,18.70
2017-12-20T21:41:14.244Z,20.05
2017-12-20T21:43:41.988Z,20.80
2017-12-20T21:46:10.923Z,20.73
2017-12-20T21:48:39.436Z,19.10
2017-12-20T21:51:07.061Z,20.65
2017-12-20T21:53:34.988Z,20.08
2017-12-20T21:56:04.668Z,20.37
2017-12-20T21:58:34.891Z,20.12
2017-12-20T22:01:03.562Z,19.95
2017-12-20T22:03:31.176Z,20.80
2017-12-20T22:05:59.367Z,18.40
2017-12-20T22:08:27.404Z,20.02
2017-12-20T22:10:55.412Z,18.35
2017-12-20T22:13:23.691Z,18.92
2017-12-20T22:15:51.667Z,18.00
2017-12-20T22:18:19.358Z,18.00
2017-12-20T22:20:48.145Z,18.10
2017-12-20T22:23:16.204Z,17.33
2017-12-20T22:25:43.952Z,17.10
2017-12-20T22:28:11.731Z,17.42
2017-12-20T22:30:39.378Z,16.33
2017-12-20T22:33:07.345Z,19.08
2017-12-20T22:35:35.018Z,17.25
2017-12-20T22:38:03.189Z,17.70
2017-12-20T22:40:31.394Z,16.92
2017-12-20T22:42:59.560Z,17.87
2017-12-20T22:45:27.412Z,18.85
2017-12-20T22:47:55.450Z,17.90
2017-12-20T22:50:23.719Z,21.75
2017-12-20T22:52:51.484Z,17.87
2017-12-20T22:55:19.337Z,19.73
2017-12-20T22:57:47.292Z,19.77
2017-12-20T23:00:15.314Z,19.70
2017-12-20T23:02:43.549Z,18.85
2017-12-20T23:05:11.253Z,20.30
2017-12-20T23:07:38.900Z,20.50
2017-12-20T23:10:06.512Z,19.85
2017-12-20T23:12:34.143Z,20.20
2017-12-20T23:15:03.025Z,18.30
2017-12-20T23:17:30.822Z,17.58
2017-12-20T23:19:59.734Z,18.12
2017-12-20T23:22:28.250Z,17.87
2017-12-20T23:24:55.884Z,18.37
2017-12-20T23:27:24.289Z,18.75
2017-12-20T23:29:51.934Z,14.27
2017-12-20T23:32:20.337Z,16.45
2017-12-20T23:34:48.028Z,16.98
2017-12-20T23:37:15.860Z,18.50
2017-12-20T23:39:43.626Z,17.30
2017-12-20T23:42:12.496Z,17.98
2017-12-20T23:44:40.412Z,19.55
2017-12-20T23:47:08.259Z,17.42
2017-12-20T23:49:35.947Z,17.50
2017-12-20T23:52:03.578Z,17.90
2017-12-20T23:54:31.241Z,19.02
2017-12-20T23:56:58.900Z,19.40
2017-12-20T23:59:26.542Z,16.55
